Last 6 Hours

AM-Summit 8643' (Ward Mt.)

15 Minute Data | America/Los_Angeles
as of 7/15/24 10:37 AM PDT
Date & Time Temp (°F) RH (%) Dew Pt (°F) Wet Bulb (°F) Wind Dir (°) Wind Spd (mph) Wind Gust (mph)
7/15/24 - 1015 63.8 39 38.5 50.6 NNE | 18 0.0 0.0
7/15/24 - 1000 63.3 38 37.2 49.9 NNE | 18 0.0 0.0
7/15/24 - 0945 63.1 35 34.8 48.9 NNE | 18 0.0 0.0
7/15/24 - 0930 63.1 32 33.0 48.2 NNE | 18 0.0 0.0
7/15/24 - 0915 63.3 31 32.3 48.1 NNE | 18 0.0 0.0
7/15/24 - 0900 62.8 33 33.6 48.3 NNE | 17 0.0 0.0
7/15/24 - 0845 62.2 35 34.2 48.3 NNE | 17 0.0 0.0
7/15/24 - 0830 61.7 33 32.2 47.4 NNE | 17 0.0 0.0
7/15/24 - 0815 61.2 31 30.1 46.5 NNE | 17 0.0 0.0
7/15/24 - 0800 61.0 31 29.8 46.3 NNE | 17 0.0 0.0
7/15/24 - 0745 60.9 31 30.4 46.4 NNE | 17 0.0 0.0
7/15/24 - 0730 60.7 32 30.9 46.5 NNE | 17 0.0 0.0
7/15/24 - 0715 60.4 33 31.1 46.5 NNE | 17 0.0 0.0
7/15/24 - 0700 60.0 34 31.6 46.5 NNE | 18 0.0 0.0
7/15/24 - 0645 59.9 38 34.2 47.3 NNE | 18 0.0 0.0
7/15/24 - 0630 59.8 39 34.9 47.6 NNE | 18 0.0 0.0
7/15/24 - 0615 59.3 40 35.2 47.5 NNE | 18 0.0 0.0
7/15/24 - 0600 58.9 41 35.5 47.4 NNE | 18 0.0 0.0
7/15/24 - 0545 58.7 42 35.8 47.5 NNE | 18 0.0 0.0
7/15/24 - 0530 58.6 42 35.9 47.5 NNE | 18 0.0 0.0
7/15/24 - 0515 58.2 44 36.3 47.5 NNE | 18 0.0 0.0
7/15/24 - 0500 57.9 44 36.4 47.4 NNE | 18 0.0 0.0
7/15/24 - 0445 57.1 47 37.1 47.3 NNE | 18 0.0 0.0
Max 63.8 47 38.5 50.6 - 0.0 0.0
Avg 60.7 37 34.0 47.6 - 0.0 0.0
Min 57.1 31 29.8 46.3 - 0.0 0.0